Terminal Aerodrome Forecast
Issued by NWS

Home | Current Version | Previous Version | Text Only | Print | Product List | Glossary On
Versions: 1 2 3 4 5 6 7 8 9 10 11 12 13 14 15 16 17 18
000
FTAK31 PAJN 170525
TAFAGY
TAF
PAGY 170525Z 1706/1806 21030G45KT 6SM -RA SCT020 OVC035
      TEMPO 1706/1708 21035G55KT
     FM170900 21025G35KT P6SM -SHRA OVC035
     FM171500 21015G22KT P6SM VCSH BKN040
     FM171900 VRB06KT P6SM VCSH BKN060
     FM180200 05004KT P6SM OVC050
      AMD LTD TO CLD VIS AND WIND=

USA.gov is the U.S. government's official web portal to all federal, state and local government web resources and services.